ENMS/MJF METAR and TAF weather

Enter ICAO airport designator
Station Type Date Time Source
ENMS METAR 2019/06/17 13:20 UTC NOAA

ENMS 171320Z 34008KT 9999 FEW008 BKN022 11/09 Q1012 RMK WIND 412FT 01006KT 280V060


Station Type Date Time Source
ENMS Decoded METAR 2019/06/17 13:20 UTC NOAA

Mosjoen Kjaerstad, Norway (ENMS) 65-48N 013-08E
Jun 17, 2019 - 09:20 AM EDT / 2019.06.17 1320 UTC
Wind: from the NNW (340 degrees) at 9 MPH (8 KT):0
Visibility: greater than 7 mile(s):0
Sky conditions: mostly cloudy
Temperature: 51 F (11 C)
Dew Point: 48 F (9 C)
Relative Humidity: 87%
Pressure (altimeter): 29.88 in. Hg (1012 hPa)
ob: ENMS 171320Z 34008KT 9999 FEW008 BKN022 11/09 Q1012 RMK WIND 412FT 01006KT 280V060
cycle: 13

Station Type Date Time Source
ENMS TAF UTC NOAA

Error!

Example: see airport list